createdAt,value
2017-11-25T00:00:43.667Z,90.48
2017-11-25T00:02:11.132Z,90.38
2017-11-25T00:03:42.430Z,90.33
2017-11-25T00:05:05.739Z,90.35
2017-11-25T00:06:32.934Z,90.16
2017-11-25T00:08:00.052Z,90.30
2017-11-25T00:09:27.204Z,90.68
2017-11-25T00:10:54.509Z,90.41
2017-11-25T00:12:21.671Z,90.19
2017-11-25T00:13:49.110Z,90.09
2017-11-25T00:15:20.295Z,89.97
2017-11-25T00:16:43.798Z,89.88
2017-11-25T00:18:10.823Z,89.91
2017-11-25T00:19:41.786Z,89.91
2017-11-25T00:21:05.055Z,89.74
2017-11-25T00:22:32.051Z,89.73
2017-11-25T00:24:03.247Z,89.75
2017-11-25T00:25:26.589Z,89.59
2017-11-25T00:26:53.520Z,89.85
2017-11-25T00:28:20.852Z,89.75
2017-11-25T00:29:48.273Z,89.63
2017-11-25T00:31:19.264Z,89.72
2017-11-25T00:32:46.587Z,89.58
2017-11-25T00:34:10.034Z,89.63
2017-11-25T00:35:37.185Z,89.67
2017-11-25T00:37:04.528Z,89.58
2017-11-25T00:38:31.977Z,89.75
2017-11-25T00:39:58.969Z,89.69
2017-11-25T00:41:30.233Z,89.66
2017-11-25T00:42:53.097Z,89.70
2017-11-25T00:44:20.222Z,89.71
2017-11-25T00:45:47.404Z,89.75
2017-11-25T00:47:14.488Z,89.73
2017-11-25T00:48:41.788Z,89.75
2017-11-25T00:50:09.077Z,89.76
2017-11-25T00:51:40.459Z,89.61
2017-11-25T00:53:03.478Z,89.55
2017-11-25T00:54:35.615Z,89.40
2017-11-25T00:55:57.931Z,89.45
2017-11-25T00:57:24.982Z,89.46
2017-11-25T00:58:56.390Z,89.50
2017-11-25T01:00:19.460Z,89.46
2017-11-25T01:01:46.793Z,89.54
2017-11-25T01:03:14.030Z,89.51
2017-11-25T01:04:45.342Z,89.59
2017-11-25T01:06:12.696Z,89.49
2017-11-25T01:07:39.897Z,89.31
2017-11-25T01:09:03.253Z,89.13
2017-11-25T01:12:01.750Z,88.97
2017-11-25T01:13:29.139Z,88.94
2017-11-25T01:14:52.366Z,88.76
2017-11-25T01:16:19.696Z,88.78
2017-11-25T01:17:47.072Z,88.67
2017-11-25T01:19:14.389Z,88.71
2017-11-25T01:20:45.624Z,88.72
2017-11-25T01:22:09.004Z,88.77
2017-11-25T01:23:36.260Z,88.63
2017-11-25T01:25:07.640Z,88.48
2017-11-25T01:26:30.883Z,88.55
2017-11-25T01:27:58.045Z,88.45
2017-11-25T01:29:25.247Z,88.56
2017-11-25T01:30:52.443Z,88.71
2017-11-25T01:32:19.792Z,88.79
2017-11-25T01:33:46.972Z,88.75
2017-11-25T01:35:14.147Z,88.37
2017-11-25T01:36:41.514Z,88.36
2017-11-25T01:38:08.697Z,88.39
2017-11-25T01:39:40.063Z,88.66
2017-11-25T01:41:07.468Z,89.06
2017-11-25T01:42:30.685Z,88.81
2017-11-25T01:44:01.685Z,88.82
2017-11-25T01:45:24.871Z,88.89
2017-11-25T01:46:52.147Z,89.02
2017-11-25T01:48:23.532Z,89.10
2017-11-25T01:49:46.820Z,88.84
2017-11-25T01:51:14.158Z,88.59
2017-11-25T01:52:41.551Z,88.72
2017-11-25T01:54:08.803Z,88.61
2017-11-25T01:55:40.025Z,88.91
2017-11-25T01:57:03.446Z,88.96
2017-11-25T01:58:34.670Z,89.50
2017-11-25T01:59:57.952Z,89.17
2017-11-25T02:01:29.151Z,89.23
2017-11-25T02:02:52.559Z,89.52
2017-11-25T02:04:19.825Z,89.49
2017-11-25T02:05:47.125Z,89.65
2017-11-25T02:07:14.487Z,89.36
2017-11-25T02:08:41.790Z,89.34
2017-11-25T02:10:09.269Z,88.97
2017-11-25T02:11:36.534Z,88.86
2017-11-25T02:13:07.845Z,88.64
2017-11-25T02:14:31.217Z,88.82
2017-11-25T02:16:02.472Z,88.56
2017-11-25T02:17:25.466Z,88.64
2017-11-25T02:18:52.695Z,88.86
2017-11-25T02:20:19.945Z,89.43
2017-11-25T02:21:47.372Z,89.24
2017-11-25T02:23:18.507Z,89.20
2017-11-25T02:24:45.864Z,89.34
2017-11-25T02:26:09.129Z,89.38
2017-11-25T02:27:36.259Z,89.34
2017-11-25T02:29:03.617Z,89.83
2017-11-25T02:30:30.655Z,89.34
2017-11-25T02:32:01.871Z,89.25
2017-11-25T02:33:29.045Z,89.13
2017-11-25T02:34:52.463Z,88.66
2017-11-25T02:36:23.666Z,89.02
2017-11-25T02:37:47.116Z,89.03
2017-11-25T02:39:18.464Z,88.45
2017-11-25T02:40:45.691Z,89.00
2017-11-25T02:42:08.921Z,89.53
2017-11-25T02:43:36.160Z,89.30
2017-11-25T02:45:03.473Z,89.10
2017-11-25T02:46:34.706Z,88.55
2017-11-25T02:47:58.112Z,88.37
2017-11-25T02:49:25.347Z,88.00
2017-11-25T02:50:56.741Z,87.96
2017-11-25T02:52:24.016Z,87.95
2017-11-25T02:53:51.182Z,87.92
2017-11-25T02:55:14.576Z,88.00
2017-11-25T02:56:45.769Z,88.50
2017-11-25T02:58:09.172Z,89.06
2017-11-25T02:59:40.402Z,89.56
2017-11-25T03:01:07.381Z,89.71
2017-11-25T03:02:30.755Z,89.41
2017-11-25T03:03:57.999Z,88.96
2017-11-25T03:05:25.174Z,88.79
2017-11-25T03:06:52.340Z,88.69
2017-11-25T03:08:19.549Z,88.59
2017-11-25T03:09:46.875Z,88.41
2017-11-25T03:11:22.169Z,88.11
2017-11-25T03:12:41.526Z,88.13
2017-11-25T03:14:12.866Z,87.98
2017-11-25T03:15:36.084Z,87.97
2017-11-25T03:17:03.361Z,88.04
2017-11-25T03:18:30.578Z,88.22
2017-11-25T03:20:01.812Z,88.25
2017-11-25T03:21:25.123Z,88.35
2017-11-25T03:22:52.261Z,88.45
2017-11-25T03:24:23.565Z,88.53
2017-11-25T03:25:47.029Z,88.60
2017-11-25T03:27:14.248Z,88.94
2017-11-25T03:28:41.581Z,88.81
2017-11-25T03:30:08.869Z,88.55
2017-11-25T03:31:40.300Z,88.48
2017-11-25T03:33:07.453Z,88.49
2017-11-25T03:34:34.817Z,88.50
2017-11-25T03:35:57.965Z,88.41
2017-11-25T03:37:25.142Z,88.86
2017-11-25T03:38:56.524Z,89.28
2017-11-25T03:40:23.813Z,88.93
2017-11-25T03:41:47.220Z,88.83
2017-11-25T03:43:14.533Z,88.84
2017-11-25T03:44:41.873Z,89.03
2017-11-25T03:46:09.090Z,89.09
2017-11-25T03:47:36.300Z,89.03
2017-11-25T03:49:03.653Z,88.92
2017-11-25T03:50:30.902Z,88.92
2017-11-25T03:52:02.040Z,88.63
2017-11-25T03:53:25.438Z,88.78
2017-11-25T03:54:52.587Z,88.82
2017-11-25T03:56:23.905Z,88.61
2017-11-25T03:57:47.304Z,88.39
2017-11-25T03:59:18.460Z,88.37
2017-11-25T04:00:41.591Z,88.51
2017-11-25T04:02:08.973Z,88.51
2017-11-25T04:03:40.401Z,88.39
2017-11-25T04:05:03.325Z,88.39
2017-11-25T04:06:30.522Z,88.50
2017-11-25T04:07:57.627Z,88.44
2017-11-25T04:09:24.538Z,88.47
2017-11-25T04:10:52.016Z,88.56
2017-11-25T04:12:19.276Z,88.78
2017-11-25T04:13:46.571Z,88.79
2017-11-25T04:15:13.906Z,88.75
2017-11-25T04:16:45.266Z,88.96
2017-11-25T04:18:12.317Z,89.04
2017-11-25T04:19:35.840Z,89.15
2017-11-25T04:21:03.181Z,89.08
2017-11-25T04:22:30.467Z,88.94
2017-11-25T04:24:01.805Z,89.08
2017-11-25T04:25:25.335Z,89.11
2017-11-25T04:26:52.640Z,89.16
2017-11-25T04:28:20.017Z,89.10
2017-11-25T04:29:47.253Z,89.03
2017-11-25T04:31:14.534Z,89.05
2017-11-25T04:32:41.756Z,89.08
2017-11-25T04:34:09.185Z,89.07
2017-11-25T04:35:36.516Z,89.13
2017-11-25T04:37:03.745Z,89.09
2017-11-25T04:38:30.925Z,89.27
2017-11-25T04:39:58.167Z,89.27
2017-11-25T04:41:25.273Z,89.39
2017-11-25T04:42:52.461Z,89.47
2017-11-25T04:44:23.928Z,89.17
2017-11-25T04:45:50.855Z,89.11
2017-11-25T04:47:14.200Z,88.79
2017-11-25T04:48:45.409Z,88.78
2017-11-25T04:50:08.793Z,88.92
2017-11-25T04:51:36.234Z,89.15
2017-11-25T04:53:03.488Z,89.06
2017-11-25T04:54:30.643Z,89.26
2017-11-25T04:56:01.839Z,89.42
2017-11-25T04:57:25.032Z,89.48
2017-11-25T04:58:52.395Z,89.12
2017-11-25T05:00:19.562Z,89.08
2017-11-25T05:01:46.961Z,89.12
2017-11-25T05:03:14.248Z,89.22
2017-11-25T05:04:41.587Z,88.97
2017-11-25T05:06:08.673Z,89.00
2017-11-25T05:07:36.098Z,88.95
2017-11-25T05:09:07.449Z,88.97
2017-11-25T05:10:30.684Z,88.90
2017-11-25T05:12:01.931Z,89.16
2017-11-25T05:13:25.216Z,89.03
2017-11-25T05:14:56.472Z,89.03
2017-11-25T05:16:19.884Z,88.79
2017-11-25T05:17:51.207Z,88.69
2017-11-25T05:19:14.472Z,88.46
2017-11-25T05:20:41.867Z,88.56
2017-11-25T05:22:09.149Z,88.38
2017-11-25T05:23:36.426Z,88.54
2017-11-25T05:25:07.684Z,88.63
2017-11-25T05:26:31.182Z,88.42
2017-11-25T05:28:02.510Z,88.64
2017-11-25T05:29:25.662Z,88.46
2017-11-25T05:30:57.217Z,88.41
2017-11-25T05:32:20.122Z,88.18
2017-11-25T05:33:47.578Z,87.92
2017-11-25T05:35:14.788Z,87.98
2017-11-25T05:36:46.255Z,87.92
2017-11-25T05:38:13.745Z,88.03
2017-11-25T05:39:37.000Z,88.01
2017-11-25T05:41:04.351Z,88.07
2017-11-25T05:42:35.691Z,88.55
2017-11-25T05:43:58.977Z,88.93
2017-11-25T05:45:26.227Z,88.68
2017-11-25T05:46:53.333Z,88.61
2017-11-25T05:48:24.504Z,88.48
2017-11-25T05:49:47.848Z,88.44
2017-11-25T05:51:15.112Z,88.39
2017-11-25T05:52:42.363Z,88.15
2017-11-25T05:54:09.749Z,88.04
2017-11-25T05:55:37.085Z,88.22
2017-11-25T05:57:04.506Z,88.50
2017-11-25T05:58:31.616Z,88.71
2017-11-25T05:59:58.993Z,88.88
2017-11-25T06:01:26.172Z,89.04
2017-11-25T06:02:53.235Z,89.17
2017-11-25T06:04:20.361Z,89.01
2017-11-25T06:05:51.771Z,88.97
2017-11-25T06:07:15.033Z,89.24
2017-11-25T06:08:42.375Z,89.39
2017-11-25T06:10:13.563Z,89.40
2017-11-25T06:11:36.839Z,89.50
2017-11-25T06:13:03.866Z,89.39
2017-11-25T06:14:35.122Z,89.58
2017-11-25T06:15:58.318Z,89.86
2017-11-25T06:17:25.536Z,90.60
2017-11-25T06:18:52.837Z,90.61
2017-11-25T06:20:24.046Z,90.40
2017-11-25T06:21:47.590Z,90.70
2017-11-25T06:23:15.074Z,90.76
2017-11-25T06:24:42.135Z,90.61
2017-11-25T06:26:09.365Z,90.91
2017-11-25T06:27:40.774Z,91.31
2017-11-25T06:29:03.950Z,91.72
2017-11-25T06:30:35.204Z,91.80
2017-11-25T06:31:58.500Z,91.51
2017-11-25T06:33:25.816Z,91.48
2017-11-25T06:34:53.342Z,91.33
2017-11-25T06:36:20.597Z,91.35
2017-11-25T06:37:47.822Z,91.54
2017-11-25T06:39:14.944Z,91.08
2017-11-25T06:40:42.119Z,91.29
2017-11-25T06:42:13.357Z,91.30
2017-11-25T06:43:36.741Z,91.35
2017-11-25T06:45:08.134Z,91.60
2017-11-25T06:46:31.346Z,91.91
2017-11-25T06:47:58.626Z,92.09
2017-11-25T06:49:25.919Z,92.06
2017-11-25T06:50:53.395Z,92.18
2017-11-25T06:52:20.658Z,92.20
2017-11-25T06:53:48.177Z,92.02
2017-11-25T06:55:15.528Z,91.74
2017-11-25T06:56:46.838Z,91.70
2017-11-25T06:58:14.280Z,91.29
2017-11-25T06:59:37.619Z,91.40
2017-11-25T07:01:04.860Z,91.50
2017-11-25T07:02:36.173Z,91.67
2017-11-25T07:03:59.383Z,91.89
2017-11-25T07:05:30.789Z,91.95
2017-11-25T07:06:57.605Z,91.82
2017-11-25T07:08:20.860Z,91.83
2017-11-25T07:09:52.309Z,92.00
2017-11-25T07:11:15.654Z,91.98
2017-11-25T07:12:42.960Z,91.99
2017-11-25T07:14:10.358Z,92.05
2017-11-25T07:15:37.677Z,91.84
2017-11-25T07:17:05.120Z,91.62
2017-11-25T07:18:36.608Z,91.78
2017-11-25T07:19:59.633Z,91.69
2017-11-25T07:21:27.033Z,91.90
2017-11-25T07:22:58.142Z,91.84
2017-11-25T07:24:25.197Z,91.84
2017-11-25T07:25:52.331Z,91.63
2017-11-25T07:27:15.563Z,91.80
2017-11-25T07:28:42.851Z,91.80
2017-11-25T07:30:10.268Z,91.81
2017-11-25T07:31:37.463Z,91.72
2017-11-25T07:33:08.705Z,91.29
2017-11-25T07:34:31.873Z,91.10
2017-11-25T07:35:59.132Z,91.33
2017-11-25T07:37:26.361Z,91.45
2017-11-25T07:38:57.547Z,91.85
2017-11-25T07:40:24.854Z,91.94
2017-11-25T07:41:48.252Z,92.10
2017-11-25T07:43:15.692Z,92.41
2017-11-25T07:44:42.969Z,92.40
2017-11-25T07:46:10.446Z,92.34
2017-11-25T07:47:37.509Z,92.41
2017-11-25T07:49:08.258Z,92.44
2017-11-25T07:50:31.619Z,92.52
2017-11-25T07:51:59.019Z,92.61
2017-11-25T07:53:30.161Z,92.59
2017-11-25T07:54:57.375Z,92.39
2017-11-25T07:56:20.695Z,91.76
2017-11-25T07:57:47.684Z,92.02
2017-11-25T07:59:14.968Z,91.86
2017-11-25T08:00:46.338Z,91.88
2017-11-25T08:02:13.678Z,92.11
2017-11-25T08:03:40.742Z,92.23
2017-11-25T08:05:04.066Z,92.69
2017-11-25T08:06:31.350Z,92.95
2017-11-25T08:07:58.426Z,92.92
2017-11-25T08:09:25.643Z,93.10
2017-11-25T08:10:56.797Z,93.12
2017-11-25T08:12:20.062Z,92.70
2017-11-25T08:13:47.441Z,92.84
2017-11-25T08:15:14.544Z,93.06
2017-11-25T08:16:41.734Z,92.92
2017-11-25T08:18:09.096Z,93.29
2017-11-25T08:19:40.422Z,93.18
2017-11-25T08:21:03.859Z,93.39
2017-11-25T08:22:31.209Z,93.04
2017-11-25T08:24:02.101Z,93.03
2017-11-25T08:25:29.631Z,92.97
2017-11-25T08:26:56.794Z,92.69
2017-11-25T08:28:19.901Z,93.01
2017-11-25T08:29:51.144Z,93.19
2017-11-25T08:31:14.618Z,93.28
2017-11-25T08:32:41.883Z,93.29
2017-11-25T08:34:13.184Z,93.39
2017-11-25T08:35:40.645Z,93.46
2017-11-25T08:37:07.638Z,93.53
2017-11-25T08:38:34.873Z,93.12
2017-11-25T08:40:02.165Z,93.48
2017-11-25T08:41:25.417Z,93.50
2017-11-25T08:42:56.861Z,93.47
2017-11-25T08:44:19.941Z,93.35
2017-11-25T08:45:47.173Z,93.20
2017-11-25T08:47:14.202Z,93.33
2017-11-25T08:48:41.621Z,93.41
2017-11-25T08:50:12.753Z,93.50
2017-11-25T08:51:39.894Z,93.55
2017-11-25T08:53:07.174Z,93.90
2017-11-25T08:54:34.353Z,93.61
2017-11-25T08:55:57.528Z,93.62
2017-11-25T08:57:24.794Z,93.46
2017-11-25T08:58:52.014Z,93.45
2017-11-25T09:00:23.312Z,93.35
2017-11-25T09:01:46.440Z,93.65
2017-11-25T09:03:17.542Z,93.83
2017-11-25T09:04:40.932Z,93.64
2017-11-25T09:06:12.208Z,93.04
2017-11-25T09:07:39.606Z,92.51
2017-11-25T09:09:02.863Z,91.86
2017-11-25T09:10:34.002Z,91.64
2017-11-25T09:12:01.260Z,91.56
2017-11-25T09:13:28.259Z,91.46
2017-11-25T09:14:55.478Z,91.38
2017-11-25T09:16:22.988Z,91.80
2017-11-25T09:17:46.130Z,92.01
2017-11-25T09:19:13.523Z,91.83
2017-11-25T09:20:40.725Z,91.77
2017-11-25T09:22:11.760Z,92.05
2017-11-25T09:23:35.168Z,92.22
2017-11-25T09:25:02.284Z,92.50
2017-11-25T09:26:29.525Z,92.11
2017-11-25T09:27:56.583Z,91.62
2017-11-25T09:29:23.410Z,91.99
2017-11-25T09:30:50.693Z,91.93
2017-11-25T09:32:17.790Z,92.44
2017-11-25T09:33:45.049Z,92.29
2017-11-25T09:35:12.309Z,92.14
2017-11-25T09:36:43.400Z,92.33
2017-11-25T09:38:10.579Z,92.07
2017-11-25T09:39:33.709Z,92.27
2017-11-25T09:41:00.903Z,92.36
2017-11-25T09:42:28.126Z,92.39
2017-11-25T09:43:55.354Z,92.68
2017-11-25T09:45:22.554Z,92.47
2017-11-25T09:46:53.647Z,92.38
2017-11-25T09:48:17.082Z,92.70
2017-11-25T09:49:48.406Z,92.62
2017-11-25T09:51:11.713Z,92.63
2017-11-25T09:52:39.079Z,92.39
2017-11-25T09:54:10.340Z,92.34
2017-11-25T09:55:37.366Z,92.28
2017-11-25T09:57:00.728Z,92.31
2017-11-25T09:58:31.814Z,92.55
2017-11-25T09:59:55.102Z,92.56
2017-11-25T10:01:22.486Z,93.04
2017-11-25T10:02:49.901Z,92.60
2017-11-25T10:04:17.282Z,92.50
2017-11-25T10:05:44.545Z,92.50
2017-11-25T10:07:11.993Z,92.66
2017-11-25T10:08:39.124Z,92.38
2017-11-25T10:10:06.410Z,91.84
2017-11-25T10:11:33.667Z,91.11
2017-11-25T10:13:00.913Z,90.25
2017-11-25T10:14:28.207Z,90.06
2017-11-25T10:15:59.313Z,89.65
2017-11-25T10:17:22.288Z,89.89
2017-11-25T10:18:49.722Z,89.79
2017-11-25T10:20:17.055Z,89.80
2017-11-25T10:21:44.261Z,89.69
2017-11-25T10:23:11.612Z,89.84
2017-11-25T10:24:42.866Z,90.23
2017-11-25T10:26:06.213Z,90.80
2017-11-25T10:27:37.575Z,90.44
2017-11-25T10:29:00.744Z,90.29
2017-11-25T10:30:31.957Z,90.29
2017-11-25T10:31:55.069Z,90.81
2017-11-25T10:33:22.342Z,90.88
2017-11-25T10:34:49.493Z,90.59
2017-11-25T10:36:16.727Z,90.10
2017-11-25T10:37:43.876Z,89.62
2017-11-25T10:39:11.158Z,89.16
2017-11-25T10:40:38.476Z,89.48
2017-11-25T10:42:05.831Z,89.31
2017-11-25T10:43:33.137Z,89.38
2017-11-25T10:45:00.278Z,89.11
2017-11-25T10:46:27.402Z,89.01
2017-11-25T10:47:58.611Z,88.32
2017-11-25T10:49:25.897Z,88.94
2017-11-25T10:50:49.151Z,88.71
2017-11-25T10:52:20.233Z,88.84
2017-11-25T10:53:43.661Z,89.15
2017-11-25T10:55:14.923Z,89.09
2017-11-25T10:56:38.141Z,88.92
2017-11-25T10:58:09.300Z,88.93
2017-11-25T10:59:36.467Z,88.65
2017-11-25T11:01:03.527Z,88.15
2017-11-25T11:02:26.797Z,87.99
2017-11-25T11:03:53.813Z,87.78
2017-11-25T11:05:21.043Z,87.60
2017-11-25T11:06:48.154Z,87.52
2017-11-25T11:08:20.377Z,87.52
2017-11-25T11:09:46.432Z,87.45
2017-11-25T11:11:13.776Z,87.51
2017-11-25T11:12:36.864Z,88.05
2017-11-25T11:14:04.215Z,88.42
2017-11-25T11:15:35.408Z,88.34
2017-11-25T11:17:02.804Z,88.36
2017-11-25T11:18:25.795Z,88.04
2017-11-25T11:19:53.079Z,88.28
2017-11-25T11:21:20.229Z,88.80
2017-11-25T11:22:47.517Z,88.72
2017-11-25T11:24:14.811Z,89.08
2017-11-25T11:25:42.096Z,89.17
2017-11-25T11:27:09.474Z,89.13
2017-11-25T11:28:36.751Z,88.89
2017-11-25T11:30:07.954Z,89.06
2017-11-25T11:31:31.354Z,88.74
2017-11-25T11:32:58.217Z,88.93
2017-11-25T11:34:25.456Z,88.60
2017-11-25T11:35:56.610Z,88.97
2017-11-25T11:37:19.762Z,88.94
2017-11-25T11:38:47.040Z,89.12
2017-11-25T11:40:14.271Z,89.33
2017-11-25T11:41:41.521Z,88.82
2017-11-25T11:43:12.986Z,88.20
2017-11-25T11:44:36.069Z,87.91
2017-11-25T11:46:07.387Z,88.00
2017-11-25T11:47:30.544Z,88.33
2017-11-25T11:49:01.662Z,88.35
2017-11-25T11:50:24.860Z,88.19
2017-11-25T11:51:52.240Z,88.48
2017-11-25T11:53:19.499Z,88.86
2017-11-25T11:54:46.813Z,89.58
2017-11-25T11:56:13.992Z,89.36
2017-11-25T11:57:45.348Z,89.15
2017-11-25T11:59:12.545Z,89.00
2017-11-25T12:00:35.946Z,88.97
2017-11-25T12:02:07.225Z,88.88
2017-11-25T12:03:34.436Z,89.16
2017-11-25T12:04:57.744Z,89.00
2017-11-25T12:06:24.971Z,89.33
2017-11-25T12:07:56.180Z,89.49
2017-11-25T12:09:23.211Z,90.06
2017-11-25T12:10:46.570Z,90.08
2017-11-25T12:12:13.975Z,89.87
2017-11-25T12:13:45.275Z,89.36
2017-11-25T12:15:12.337Z,89.25
2017-11-25T12:16:39.580Z,89.35
2017-11-25T12:18:06.958Z,89.40
2017-11-25T12:19:30.142Z,89.63
2017-11-25T12:21:01.330Z,90.02
2017-11-25T12:22:28.532Z,89.93
2017-11-25T12:23:51.830Z,90.11
2017-11-25T12:25:23.146Z,90.23
2017-11-25T12:26:50.179Z,90.05
2017-11-25T12:28:13.337Z,90.06
2017-11-25T12:29:40.561Z,90.18
2017-11-25T12:31:11.854Z,90.17
2017-11-25T12:32:35.002Z,90.07
2017-11-25T12:34:06.268Z,90.16
2017-11-25T12:35:29.404Z,90.38
2017-11-25T12:37:00.615Z,90.43
2017-11-25T12:38:23.762Z,90.09
2017-11-25T12:39:54.913Z,89.84
2017-11-25T12:41:18.146Z,89.72
2017-11-25T12:42:49.498Z,89.84
2017-11-25T12:44:12.809Z,88.97
2017-11-25T12:45:40.115Z,89.28
2017-11-25T12:47:11.508Z,89.42
2017-11-25T12:48:34.610Z,89.25
2017-11-25T12:50:01.768Z,90.09
2017-11-25T12:51:29.222Z,89.74
2017-11-25T12:53:00.296Z,89.54
2017-11-25T12:54:23.498Z,88.93
2017-11-25T12:55:50.897Z,89.50
2017-11-25T12:57:21.950Z,89.88
2017-11-25T12:58:45.177Z,89.64
2017-11-25T13:00:16.550Z,89.43
2017-11-25T13:01:39.751Z,88.93
2017-11-25T13:03:06.982Z,88.78
2017-11-25T13:04:34.235Z,89.00
2017-11-25T13:06:01.534Z,88.75
2017-11-25T13:07:28.691Z,88.78
2017-11-25T13:09:00.084Z,88.39
2017-11-25T13:10:27.365Z,88.38
2017-11-25T13:11:50.747Z,88.13
2017-11-25T13:13:22.004Z,88.81
2017-11-25T13:14:45.311Z,88.91
2017-11-25T13:16:12.566Z,88.78
2017-11-25T13:17:39.664Z,88.83
2017-11-25T13:19:06.987Z,88.60
2017-11-25T13:20:34.371Z,88.74
2017-11-25T13:22:01.691Z,88.84
2017-11-25T13:23:28.907Z,89.12
2017-11-25T13:25:00.031Z,89.23
2017-11-25T13:26:27.542Z,89.56
2017-11-25T13:27:50.972Z,88.97
2017-11-25T13:29:18.312Z,89.43
2017-11-25T13:30:45.715Z,89.99
2017-11-25T13:32:16.803Z,89.63
2017-11-25T13:33:40.275Z,89.26
2017-11-25T13:35:07.530Z,89.50
2017-11-25T13:36:34.871Z,89.91
2017-11-25T13:38:02.149Z,89.85
2017-11-25T13:39:33.406Z,89.49
2017-11-25T13:41:00.556Z,89.18
2017-11-25T13:42:23.621Z,88.96
2017-11-25T13:43:54.784Z,89.74
2017-11-25T13:45:18.175Z,88.08
2017-11-25T13:46:45.278Z,88.61
2017-11-25T13:48:12.525Z,89.11
2017-11-25T13:49:43.624Z,88.82
2017-11-25T13:51:11.039Z,88.50
2017-11-25T13:52:34.384Z,88.43
2017-11-25T13:54:01.741Z,89.11
2017-11-25T13:55:28.951Z,88.99
2017-11-25T13:56:56.022Z,88.51
2017-11-25T13:58:23.356Z,88.12
2017-11-25T13:59:50.585Z,88.45
2017-11-25T14:01:21.624Z,88.08
2017-11-25T14:02:45.070Z,88.65
2017-11-25T14:04:12.232Z,88.34
2017-11-25T14:05:39.452Z,88.64
2017-11-25T14:07:06.729Z,88.30
2017-11-25T14:08:37.991Z,88.28
2017-11-25T14:10:01.227Z,88.80
2017-11-25T14:11:28.630Z,88.55
2017-11-25T14:12:59.602Z,88.40
2017-11-25T14:14:23.021Z,88.35
2017-11-25T14:15:50.297Z,88.31
2017-11-25T14:17:17.406Z,87.83
2017-11-25T14:18:48.778Z,87.49
2017-11-25T14:20:11.939Z,88.21
2017-11-25T14:21:43.250Z,88.09
2017-11-25T14:23:06.619Z,88.71
2017-11-25T14:24:33.753Z,88.84
2017-11-25T14:26:01.317Z,88.48
2017-11-25T14:27:32.339Z,88.35
2017-11-25T14:28:55.787Z,87.64
2017-11-25T14:30:23.105Z,86.98
2017-11-25T14:31:54.101Z,87.48
2017-11-25T14:33:21.586Z,87.31
2017-11-25T14:34:48.694Z,87.86
2017-11-25T14:36:11.990Z,87.45
2017-11-25T14:37:43.461Z,87.65
2017-11-25T14:39:06.718Z,86.78
2017-11-25T14:40:34.095Z,86.63
2017-11-25T14:42:01.170Z,87.08
2017-11-25T14:43:28.384Z,87.10
2017-11-25T14:44:55.387Z,87.14
2017-11-25T14:46:22.764Z,87.40
2017-11-25T14:47:54.056Z,87.68
2017-11-25T14:49:21.160Z,87.82
2017-11-25T14:50:44.391Z,87.95
2017-11-25T14:52:11.642Z,87.94
2017-11-25T14:53:39.013Z,87.91
2017-11-25T14:55:06.181Z,87.79
2017-11-25T14:56:33.299Z,87.39
2017-11-25T14:58:04.369Z,87.53
2017-11-25T14:59:27.647Z,87.07
2017-11-25T15:00:55.000Z,86.89
2017-11-25T15:02:22.312Z,86.70
2017-11-25T15:03:53.724Z,87.13
2017-11-25T15:05:20.713Z,87.19
2017-11-25T15:06:44.242Z,86.90
2017-11-25T15:08:11.612Z,87.21
2017-11-25T15:09:38.763Z,87.11
2017-11-25T15:11:09.813Z,86.94
2017-11-25T15:12:33.250Z,86.73
2017-11-25T15:14:00.453Z,86.53
2017-11-25T15:15:31.697Z,86.75
2017-11-25T15:16:54.911Z,86.95
2017-11-25T15:18:22.371Z,86.81
2017-11-25T15:19:49.546Z,86.74
2017-11-25T15:21:16.844Z,86.74
2017-11-25T15:22:44.270Z,86.46
2017-11-25T15:24:11.636Z,86.47
2017-11-25T15:25:38.597Z,86.58
2017-11-25T15:27:05.967Z,86.38
2017-11-25T15:28:33.318Z,86.43
2017-11-25T15:30:04.655Z,86.31
2017-11-25T15:31:27.798Z,86.16
2017-11-25T15:32:58.841Z,86.31
2017-11-25T15:34:22.000Z,86.31
2017-11-25T15:35:53.204Z,86.16
2017-11-25T15:37:16.683Z,86.30
2017-11-25T15:38:44.157Z,86.45
2017-11-25T15:40:11.296Z,86.60
2017-11-25T15:41:42.499Z,86.61
2017-11-25T15:43:05.902Z,86.45
2017-11-25T15:44:33.213Z,86.71
2017-11-25T15:46:04.321Z,87.00
2017-11-25T15:47:27.646Z,87.16
2017-11-25T15:48:54.847Z,87.03
2017-11-25T15:50:26.138Z,87.20
2017-11-25T15:51:49.550Z,87.06
2017-11-25T15:53:16.940Z,87.13
2017-11-25T15:54:44.277Z,87.63
2017-11-25T15:56:11.634Z,88.12
2017-11-25T15:57:38.871Z,87.97
2017-11-25T15:59:06.029Z,88.17
2017-11-25T16:00:33.128Z,88.08
2017-11-25T16:02:00.338Z,87.89
2017-11-25T16:03:27.614Z,88.24
2017-11-25T16:04:54.782Z,88.22
2017-11-25T16:06:26.237Z,87.89
2017-11-25T16:07:53.326Z,88.25
2017-11-25T16:09:16.536Z,88.03
2017-11-25T16:10:43.842Z,88.63
2017-11-25T16:12:15.128Z,88.99
2017-11-25T16:13:42.318Z,89.42
2017-11-25T16:15:09.582Z,89.36
2017-11-25T16:16:32.693Z,89.96
2017-11-25T16:18:00.086Z,89.71
2017-11-25T16:19:27.374Z,89.12
2017-11-25T16:20:58.546Z,89.15
2017-11-25T16:22:21.808Z,88.87
2017-11-25T16:23:49.075Z,88.67
2017-11-25T16:25:20.289Z,88.49
2017-11-25T16:26:43.567Z,88.61
2017-11-25T16:28:14.831Z,88.38
2017-11-25T16:29:42.228Z,87.94
2017-11-25T16:31:05.461Z,88.21
2017-11-25T16:32:36.741Z,87.78
2017-11-25T16:33:59.748Z,86.96
2017-11-25T16:35:27.010Z,87.26
2017-11-25T16:36:57.997Z,86.62
2017-11-25T16:38:21.379Z,86.24
2017-11-25T16:39:48.416Z,86.97
2017-11-25T16:41:15.797Z,86.91
2017-11-25T16:42:43.057Z,86.69
2017-11-25T16:44:10.189Z,87.74
2017-11-25T16:45:37.573Z,87.62
2017-11-25T16:47:04.741Z,87.93
2017-11-25T16:48:31.576Z,87.51
2017-11-25T16:49:58.779Z,87.90
2017-11-25T16:51:29.900Z,87.29
2017-11-25T16:52:57.068Z,87.26
2017-11-25T16:54:20.179Z,87.54
2017-11-25T16:55:47.395Z,88.32
2017-11-25T16:57:18.653Z,87.69
2017-11-25T16:58:41.785Z,87.70
2017-11-25T17:00:13.249Z,87.89
2017-11-25T17:01:36.446Z,88.19
2017-11-25T17:03:03.806Z,88.06
2017-11-25T17:04:31.119Z,88.11
2017-11-25T17:05:58.261Z,88.37
2017-11-25T17:07:33.185Z,88.15
2017-11-25T17:08:52.598Z,88.23
2017-11-25T17:10:19.929Z,87.91
2017-11-25T17:11:47.175Z,87.97
2017-11-25T17:13:14.361Z,87.83
2017-11-25T17:14:41.733Z,87.84
2017-11-25T17:16:13.030Z,87.48
2017-11-25T17:17:36.370Z,87.53
2017-11-25T17:19:07.653Z,88.34
2017-11-25T17:20:30.886Z,88.56
2017-11-25T17:22:02.048Z,88.84
2017-11-25T17:23:29.130Z,89.25
2017-11-25T17:24:56.419Z,89.42
2017-11-25T17:26:19.836Z,89.33
2017-11-25T17:27:47.088Z,88.86
2017-11-25T17:29:18.322Z,88.83
2017-11-25T17:30:41.579Z,88.84
2017-11-25T17:32:09.036Z,88.42
2017-11-25T17:33:36.118Z,88.30
2017-11-25T17:35:03.250Z,87.98
2017-11-25T17:36:30.417Z,87.80
2017-11-25T17:38:01.624Z,88.44
2017-11-25T17:39:28.896Z,88.17
2017-11-25T17:40:52.013Z,88.48
2017-11-25T17:42:19.189Z,88.37
2017-11-25T17:43:46.704Z,87.83
2017-11-25T17:45:17.694Z,88.00
2017-11-25T17:46:45.029Z,87.94
2017-11-25T17:48:08.377Z,87.81
2017-11-25T17:49:35.619Z,87.94
2017-11-25T17:51:02.920Z,87.92
2017-11-25T17:52:33.751Z,87.93
2017-11-25T17:53:56.729Z,88.05
2017-11-25T17:55:27.797Z,88.23
2017-11-25T17:56:51.015Z,88.16
2017-11-25T17:58:18.334Z,87.88
2017-11-25T17:59:49.437Z,87.83
2017-11-25T18:01:12.801Z,87.65
2017-11-25T18:02:44.071Z,87.71
2017-11-25T18:04:07.343Z,87.79
2017-11-25T18:05:34.727Z,87.32
2017-11-25T18:07:02.025Z,87.88
2017-11-25T18:08:33.250Z,87.66
2017-11-25T18:09:56.605Z,87.98
2017-11-25T18:11:23.641Z,88.04
2017-11-25T18:12:54.968Z,88.37
2017-11-25T18:14:22.113Z,89.05
2017-11-25T18:15:50.477Z,88.54
2017-11-25T18:17:16.736Z,88.36
2017-11-25T18:18:40.036Z,88.59
2017-11-25T18:20:11.346Z,88.50
2017-11-25T18:21:34.423Z,88.68
2017-11-25T18:23:05.392Z,88.60
2017-11-25T18:24:28.913Z,88.88
2017-11-25T18:25:55.786Z,89.01
2017-11-25T18:27:27.238Z,88.41
2017-11-25T18:28:50.471Z,88.61
2017-11-25T18:30:21.737Z,88.06
2017-11-25T18:31:44.932Z,88.13
2017-11-25T18:33:16.023Z,87.39
2017-11-25T18:34:43.207Z,87.50
2017-11-25T18:36:06.559Z,87.70
2017-11-25T18:37:33.842Z,87.64
2017-11-25T18:39:01.049Z,87.49
2017-11-25T18:40:28.199Z,87.43
2017-11-25T18:41:55.417Z,87.25
2017-11-25T18:43:26.641Z,87.77
2017-11-25T18:44:53.859Z,87.73